createdAt,value
2022-11-06T00:00:59.820Z,92.70
2022-11-06T00:03:26.851Z,92.60
2022-11-06T00:06:12.566Z,92.60
2022-11-06T00:08:41.183Z,92.70
2022-11-06T00:11:19.022Z,92.70
2022-11-06T00:13:47.750Z,92.70
2022-11-06T00:16:14.984Z,92.70
2022-11-06T00:18:42.691Z,92.70
2022-11-06T00:21:14.665Z,92.70
2022-11-06T00:23:42.114Z,92.70
2022-11-06T00:26:14.219Z,92.70
2022-11-06T00:28:41.365Z,92.70
2022-11-06T00:34:42.943Z,92.70
2022-11-06T00:37:10.045Z,92.70
2022-11-06T00:39:37.033Z,92.70
2022-11-06T00:42:04.089Z,92.80
2022-11-06T00:44:31.255Z,92.70
2022-11-06T00:46:58.213Z,92.80
2022-11-06T00:49:25.128Z,92.70
2022-11-06T00:51:52.135Z,92.80
2022-11-06T00:54:19.186Z,92.80
2022-11-06T00:56:55.319Z,92.80
2022-11-06T00:59:22.373Z,92.80
2022-11-06T01:01:52.605Z,92.80
2022-11-06T01:04:25.827Z,92.80
2022-11-06T01:06:54.599Z,92.80
2022-11-06T01:09:23.529Z,92.90
2022-11-06T01:14:43.985Z,92.90
2022-11-06T01:17:14.315Z,92.80
2022-11-06T01:19:50.358Z,92.80
2022-11-06T01:22:17.328Z,92.80
2022-11-06T01:24:44.360Z,92.80
2022-11-06T01:27:27.643Z,92.90
2022-11-06T01:29:55.615Z,92.80
2022-11-06T01:32:22.617Z,92.80
2022-11-06T01:34:51.035Z,92.80
2022-11-06T01:37:18.083Z,92.80
2022-11-06T01:39:45.043Z,92.80
2022-11-06T01:42:12.952Z,92.80
2022-11-06T01:44:43.023Z,92.80
2022-11-06T01:47:38.445Z,92.80
2022-11-06T01:50:08.189Z,92.90
2022-11-06T01:52:35.181Z,92.80
2022-11-06T01:55:28.182Z,92.80
2022-11-06T01:57:55.072Z,92.90
2022-11-06T02:00:22.113Z,92.80
2022-11-06T02:02:49.376Z,92.80
2022-11-06T02:05:17.200Z,92.80
2022-11-06T02:07:44.242Z,92.80
2022-11-06T02:10:12.020Z,92.90
2022-11-06T02:12:50.977Z,92.90
2022-11-06T02:15:22.636Z,92.90
2022-11-06T02:18:23.728Z,92.90
2022-11-06T02:21:14.070Z,92.90
2022-11-06T02:24:21.616Z,92.90
2022-11-06T02:27:10.473Z,92.80
2022-11-06T02:29:37.315Z,92.80
2022-11-06T02:32:07.087Z,92.80
2022-11-06T02:34:34.031Z,92.80
2022-11-06T02:37:02.813Z,92.80
2022-11-06T02:39:29.852Z,92.80
2022-11-06T02:41:57.784Z,92.80
2022-11-06T02:44:26.205Z,92.80
2022-11-06T02:46:55.711Z,92.80
2022-11-06T02:49:31.624Z,92.80
2022-11-06T02:52:00.695Z,92.90
2022-11-06T02:54:28.716Z,92.80
2022-11-06T02:56:55.988Z,92.80
2022-11-06T02:59:28.614Z,92.80
2022-11-06T03:02:01.268Z,92.80
2022-11-06T03:04:33.708Z,92.80
2022-11-06T03:07:18.772Z,92.80
2022-11-06T03:09:45.747Z,92.80
2022-11-06T03:12:39.541Z,92.90
2022-11-06T03:15:08.457Z,92.80
2022-11-06T03:17:51.998Z,92.80
2022-11-06T03:20:23.676Z,92.90
2022-11-06T03:23:13.536Z,92.80
2022-11-06T03:25:56.181Z,92.80
2022-11-06T03:28:31.919Z,92.80
2022-11-06T03:31:00.229Z,92.80
2022-11-06T03:33:54.982Z,92.80
2022-11-06T03:36:22.831Z,92.80
2022-11-06T03:39:01.335Z,92.80
2022-11-06T03:41:49.473Z,92.80
2022-11-06T03:44:20.106Z,92.80
2022-11-06T03:46:53.955Z,92.80
2022-11-06T03:49:28.996Z,92.80
2022-11-06T03:52:04.602Z,92.80
2022-11-06T03:54:44.687Z,92.80
2022-11-06T03:57:29.411Z,92.80
2022-11-06T03:59:58.547Z,92.80
2022-11-06T04:02:25.978Z,92.80
2022-11-06T04:04:56.942Z,92.80
2022-11-06T04:07:28.012Z,92.80
2022-11-06T04:10:15.792Z,92.80
2022-11-06T04:13:05.858Z,92.80
2022-11-06T04:15:49.092Z,92.80
2022-11-06T04:18:19.932Z,92.90
2022-11-06T04:21:11.206Z,92.90
2022-11-06T04:24:12.242Z,93.10
2022-11-06T04:27:01.391Z,92.90
2022-11-06T04:29:58.871Z,92.90
2022-11-06T04:32:47.647Z,92.90
2022-11-06T04:35:36.269Z,92.90
2022-11-06T04:38:07.515Z,92.90
2022-11-06T04:40:59.457Z,92.90
2022-11-06T04:43:35.834Z,92.90
2022-11-06T04:46:02.807Z,92.90
2022-11-06T04:48:29.798Z,92.90
2022-11-06T04:50:59.302Z,92.90
2022-11-06T04:53:26.268Z,92.90
2022-11-06T04:56:00.225Z,92.90
2022-11-06T04:58:27.163Z,93.00
2022-11-06T05:00:54.260Z,93.00
2022-11-06T05:03:22.015Z,93.00
2022-11-06T05:05:49.021Z,93.00
2022-11-06T05:08:17.170Z,93.00
2022-11-06T05:10:44.321Z,93.00
2022-11-06T05:13:13.867Z,93.00
2022-11-06T05:15:40.933Z,93.00
2022-11-06T05:18:07.823Z,93.00
2022-11-06T05:20:37.556Z,93.10
2022-11-06T05:23:04.595Z,93.00
2022-11-06T05:25:34.270Z,93.00
2022-11-06T05:28:01.456Z,93.00
2022-11-06T05:30:28.621Z,93.00
2022-11-06T05:33:01.663Z,93.20
2022-11-06T05:35:29.677Z,93.00
2022-11-06T05:38:00.854Z,93.00
2022-11-06T05:40:27.809Z,93.00
2022-11-06T05:42:57.204Z,93.00
2022-11-06T05:45:24.264Z,93.00
2022-11-06T05:47:51.222Z,93.00
2022-11-06T05:50:18.484Z,93.00
2022-11-06T05:52:45.490Z,93.00
2022-11-06T05:55:15.169Z,93.00
2022-11-06T05:57:42.747Z,93.00
2022-11-06T06:00:13.543Z,93.00
2022-11-06T06:02:40.737Z,93.10
2022-11-06T06:05:08.420Z,93.10
2022-11-06T06:07:35.377Z,93.10
2022-11-06T06:10:02.392Z,93.00
2022-11-06T06:12:29.542Z,93.00
2022-11-06T06:14:56.713Z,93.10
2022-11-06T06:17:23.626Z,93.10
2022-11-06T06:19:50.690Z,93.10
2022-11-06T06:22:17.661Z,93.00
2022-11-06T06:24:44.809Z,93.10
2022-11-06T06:27:11.955Z,93.00
2022-11-06T06:29:38.916Z,93.00
2022-11-06T06:32:06.226Z,93.10
2022-11-06T06:34:33.235Z,93.10
2022-11-06T06:37:00.576Z,93.10
2022-11-06T06:39:28.717Z,93.10
2022-11-06T06:41:59.023Z,93.10
2022-11-06T06:44:26.013Z,93.10
2022-11-06T06:46:53.024Z,93.10
2022-11-06T06:49:20.026Z,93.10
2022-11-06T06:51:50.386Z,93.10
2022-11-06T06:54:17.475Z,93.10
2022-11-06T06:56:44.658Z,93.10
2022-11-06T06:59:14.210Z,93.10
2022-11-06T07:01:41.387Z,93.20
2022-11-06T07:04:13.621Z,93.10
2022-11-06T07:06:43.729Z,93.10
2022-11-06T07:09:10.677Z,93.20
2022-11-06T07:11:37.562Z,93.20
2022-11-06T07:14:05.717Z,93.20
2022-11-06T07:16:32.783Z,93.20
2022-11-06T07:19:00.020Z,93.10
2022-11-06T07:21:27.031Z,93.10
2022-11-06T07:23:53.976Z,93.10
2022-11-06T07:26:20.927Z,93.10
2022-11-06T07:28:48.002Z,93.10
2022-11-06T07:31:17.419Z,93.10
2022-11-06T07:33:44.391Z,93.10
2022-11-06T07:36:12.703Z,93.10
2022-11-06T07:38:41.793Z,93.10
2022-11-06T07:41:10.290Z,93.10
2022-11-06T07:43:37.675Z,93.10
2022-11-06T07:46:05.903Z,93.10
2022-11-06T07:48:33.164Z,93.10
2022-11-06T07:51:02.892Z,93.10
2022-11-06T07:53:29.937Z,93.10
2022-11-06T07:55:57.371Z,93.10
2022-11-06T07:58:24.472Z,93.10
2022-11-06T08:00:53.159Z,93.10
2022-11-06T08:03:23.951Z,93.10
2022-11-06T08:05:50.997Z,93.10
2022-11-06T08:08:18.128Z,93.10
2022-11-06T08:10:44.976Z,93.10
2022-11-06T08:13:12.278Z,93.10
2022-11-06T08:15:41.726Z,93.00
2022-11-06T08:18:08.943Z,93.00
2022-11-06T08:20:36.503Z,93.00
2022-11-06T08:23:04.069Z,93.00
2022-11-06T08:25:31.139Z,93.00
2022-11-06T08:27:58.651Z,93.00
2022-11-06T08:30:26.318Z,93.10
2022-11-06T08:32:53.301Z,93.10
2022-11-06T08:35:20.153Z,93.10
2022-11-06T08:37:47.098Z,93.10
2022-11-06T08:40:14.080Z,93.10
2022-11-06T08:42:41.297Z,93.10
2022-11-06T08:45:09.055Z,93.40
2022-11-06T08:47:36.124Z,93.10
2022-11-06T08:50:03.142Z,93.20
2022-11-06T08:52:34.019Z,93.10
2022-11-06T08:55:01.342Z,93.20
2022-11-06T08:57:28.504Z,93.20
2022-11-06T08:59:55.541Z,93.20
2022-11-06T09:02:22.794Z,93.20
2022-11-06T09:04:50.046Z,93.30
2022-11-06T09:07:17.809Z,93.30
2022-11-06T09:09:44.888Z,93.30
2022-11-06T09:12:11.903Z,93.30
2022-11-06T09:14:45.550Z,93.30
2022-11-06T09:17:17.482Z,93.30
2022-11-06T09:19:50.935Z,93.30
2022-11-06T09:22:18.371Z,93.30
2022-11-06T09:25:02.558Z,93.30
2022-11-06T09:28:16.319Z,93.30
2022-11-06T09:30:46.328Z,93.30
2022-11-06T09:33:20.629Z,93.30
2022-11-06T09:36:04.734Z,93.30
2022-11-06T09:38:39.251Z,93.40
2022-11-06T09:44:37.976Z,93.40
2022-11-06T09:47:23.494Z,93.40
2022-11-06T09:49:57.302Z,93.40
2022-11-06T09:52:24.164Z,93.40
2022-11-06T09:54:58.629Z,93.40
2022-11-06T09:57:39.897Z,93.30
2022-11-06T10:00:16.265Z,93.30
2022-11-06T10:02:59.859Z,93.40
2022-11-06T10:08:53.659Z,93.40
2022-11-06T10:11:35.665Z,93.40
2022-11-06T10:14:29.368Z,93.40
2022-11-06T10:17:28.672Z,93.40
2022-11-06T10:20:10.655Z,93.40
2022-11-06T10:22:40.642Z,93.40
2022-11-06T10:25:22.387Z,93.40
2022-11-06T10:28:06.341Z,93.40
2022-11-06T10:30:54.735Z,93.40
2022-11-06T10:37:30.198Z,93.40
2022-11-06T10:39:57.440Z,93.40
2022-11-06T10:42:36.707Z,93.40
2022-11-06T10:45:09.252Z,93.40
2022-11-06T10:47:55.749Z,93.40
2022-11-06T10:50:26.833Z,93.50
2022-11-06T10:53:32.244Z,93.50
2022-11-06T10:56:21.308Z,93.50
2022-11-06T10:58:48.756Z,93.40
2022-11-06T11:01:16.007Z,93.40
2022-11-06T11:03:46.644Z,93.40
2022-11-06T11:06:13.846Z,93.40
2022-11-06T11:09:38.903Z,93.40
2022-11-06T11:12:14.345Z,93.40
2022-11-06T11:15:15.707Z,93.40
2022-11-06T13:05:39.181Z,92.70
2022-11-06T15:22:18.120Z,92.30
2022-11-06T15:25:11.089Z,92.20
2022-11-06T15:36:38.556Z,92.10
2022-11-06T15:43:11.094Z,92.10
2022-11-06T15:46:17.681Z,92.10
2022-11-06T15:49:08.658Z,92.20
2022-11-06T15:51:51.299Z,92.10
2022-11-06T15:55:23.770Z,92.10
2022-11-06T15:58:38.891Z,92.10
2022-11-06T16:37:34.605Z,92.20
2022-11-06T16:44:11.703Z,92.30
2022-11-06T18:25:48.150Z,92.10
2022-11-06T18:28:54.251Z,92.10
2022-11-06T18:48:36.633Z,92.10
2022-11-06T18:50:58.446Z,92.00
2022-11-06T18:54:26.686Z,92.10
2022-11-06T19:14:08.500Z,92.10
2022-11-06T19:17:35.207Z,92.30
2022-11-06T19:20:38.855Z,92.10
2022-11-06T20:01:16.654Z,92.10
2022-11-06T20:16:03.588Z,92.00
2022-11-06T20:33:08.441Z,92.00
2022-11-06T21:27:06.330Z,92.00
2022-11-06T21:37:33.011Z,91.90
2022-11-06T21:40:42.462Z,91.90
2022-11-06T21:44:53.144Z,91.90
2022-11-06T21:46:16.271Z,91.90
2022-11-06T21:48:47.867Z,91.90
2022-11-06T21:52:17.115Z,91.90
2022-11-06T21:55:06.437Z,91.90
2022-11-06T21:57:51.439Z,91.90
2022-11-06T22:01:18.325Z,91.90
2022-11-06T22:12:10.602Z,91.80
2022-11-06T22:26:29.235Z,91.90
2022-11-06T22:37:05.350Z,91.70
2022-11-06T22:39:40.838Z,91.70
2022-11-06T22:46:24.850Z,91.70
2022-11-06T22:52:21.917Z,91.70
2022-11-06T22:54:47.589Z,91.70
2022-11-06T22:59:55.547Z,91.70
2022-11-06T23:02:45.938Z,91.70
2022-11-06T23:09:01.410Z,91.80
2022-11-06T23:11:47.339Z,91.80
2022-11-06T23:17:45.627Z,91.80
2022-11-06T23:20:15.304Z,91.80
2022-11-06T23:28:58.633Z,91.80
2022-11-06T23:31:25.786Z,91.80
2022-11-06T23:40:07.201Z,91.90
2022-11-06T23:47:08.756Z,91.90
2022-11-06T23:50:05.166Z,91.90
2022-11-06T23:52:32.259Z,91.90
2022-11-06T23:54:59.254Z,92.00
2022-11-06T23:57:26.249Z,92.00
2022-11-06T23:59:53.306Z,92.00
